createdAt,value
2019-05-16T00:02:29.179Z,11.60
2019-05-16T00:04:59.232Z,11.03
2019-05-16T00:07:30.623Z,11.20
2019-05-16T00:10:00.360Z,12.57
2019-05-16T00:12:29.999Z,13.20
2019-05-16T00:14:59.647Z,11.10
2019-05-16T00:17:29.228Z,12.00
2019-05-16T00:19:59.073Z,12.40
2019-05-16T00:22:29.721Z,11.67
2019-05-16T00:24:59.344Z,11.60
2019-05-16T00:27:28.903Z,11.43
2019-05-16T00:29:58.617Z,10.17
2019-05-16T00:32:28.328Z,10.40
2019-05-16T00:34:58.370Z,11.10
2019-05-16T00:37:29.521Z,11.60
2019-05-16T00:40:01.298Z,12.13
2019-05-16T00:42:30.797Z,13.13
2019-05-16T00:45:00.494Z,13.00
2019-05-16T00:47:30.782Z,13.70
2019-05-16T00:50:00.387Z,13.07
2019-05-16T00:52:29.998Z,14.53
2019-05-16T00:54:59.584Z,13.80
2019-05-16T00:57:29.556Z,12.70
2019-05-16T00:59:59.471Z,13.07
2019-05-16T01:02:30.879Z,12.80
2019-05-16T01:05:00.463Z,14.00
2019-05-16T01:07:30.092Z,14.50
2019-05-16T01:09:59.704Z,14.50
2019-05-16T01:12:29.293Z,14.40
2019-05-16T01:14:58.956Z,13.63
2019-05-16T01:17:28.589Z,14.77
2019-05-16T01:19:58.182Z,14.40
2019-05-16T01:22:29.016Z,14.53
2019-05-16T01:24:58.787Z,15.03
2019-05-16T01:27:28.322Z,14.50
2019-05-16T01:29:58.510Z,14.20
2019-05-16T01:32:29.216Z,14.10
2019-05-16T01:34:59.512Z,15.27
2019-05-16T01:37:29.039Z,15.70
2019-05-16T01:39:58.822Z,15.37
2019-05-16T01:42:28.443Z,15.93
2019-05-16T01:44:58.045Z,17.20
2019-05-16T01:47:28.821Z,15.47
2019-05-16T01:49:58.591Z,16.83
2019-05-16T01:52:29.104Z,16.53
2019-05-16T01:54:58.880Z,16.77
2019-05-16T01:57:28.598Z,16.90
2019-05-16T01:59:58.990Z,16.50
2019-05-16T02:02:29.033Z,15.70
2019-05-16T02:04:59.035Z,17.00
2019-05-16T02:07:28.814Z,16.50
2019-05-16T02:09:58.473Z,16.83
2019-05-16T02:12:28.131Z,15.33
2019-05-16T02:14:58.758Z,15.47
2019-05-16T02:17:29.042Z,15.60
2019-05-16T02:19:58.683Z,16.20
2019-05-16T02:22:28.575Z,16.07
2019-05-16T02:24:58.582Z,15.80
2019-05-16T02:27:28.709Z,15.90
2019-05-16T02:30:00.059Z,17.00
2019-05-16T02:32:31.265Z,16.43
2019-05-16T02:35:01.440Z,16.50
2019-05-16T02:37:34.868Z,16.67
2019-05-16T02:40:02.509Z,17.53
2019-05-16T02:42:32.223Z,16.53
2019-05-16T02:45:02.674Z,15.57
2019-05-16T02:47:34.933Z,16.37
2019-05-16T02:50:03.905Z,16.60
2019-05-16T02:52:33.686Z,16.50
2019-05-16T02:55:04.779Z,16.70
2019-05-16T02:57:34.384Z,16.90
2019-05-16T03:00:04.828Z,16.67
2019-05-16T03:02:34.722Z,17.40
2019-05-16T03:05:04.467Z,16.73
2019-05-16T03:07:41.568Z,17.50
2019-05-16T03:10:06.147Z,17.33
2019-05-16T03:12:41.159Z,17.73
2019-05-16T03:15:11.057Z,17.93
2019-05-16T03:17:44.128Z,18.70
2019-05-16T03:20:14.063Z,18.70
2019-05-16T03:22:45.497Z,19.67
2019-05-16T03:25:15.140Z,19.50
2019-05-16T03:27:44.671Z,19.57
2019-05-16T03:30:16.659Z,19.43
2019-05-16T03:32:46.757Z,19.33
2019-05-16T03:35:24.006Z,21.97
2019-05-16T03:37:55.617Z,22.50
2019-05-16T03:40:31.405Z,21.10
2019-05-16T03:43:01.504Z,20.83
2019-05-16T03:45:32.137Z,20.23
2019-05-16T03:48:03.037Z,20.17
2019-05-16T03:50:33.806Z,19.37
2019-05-16T03:53:03.400Z,21.20
2019-05-16T03:55:33.099Z,19.20
2019-05-16T03:58:02.838Z,19.33
2019-05-16T04:00:54.504Z,18.80
2019-05-16T04:03:28.086Z,19.97
2019-05-16T04:05:55.752Z,20.20
2019-05-16T04:08:25.930Z,19.90
2019-05-16T04:10:56.208Z,19.27
2019-05-16T04:13:25.771Z,19.80
2019-05-16T04:15:55.398Z,19.43
2019-05-16T04:18:25.025Z,20.20
2019-05-16T04:20:54.567Z,19.17
2019-05-16T04:23:24.312Z,18.97
2019-05-16T04:25:53.893Z,18.70
2019-05-16T04:28:23.905Z,19.27
2019-05-16T04:30:53.549Z,18.63
2019-05-16T04:33:23.146Z,18.47
2019-05-16T04:35:53.245Z,17.40
2019-05-16T04:38:35.103Z,18.63
2019-05-16T04:40:54.232Z,18.20
2019-05-16T04:43:23.814Z,18.63
2019-05-16T04:45:53.475Z,18.60
2019-05-16T04:48:23.017Z,18.20
2019-05-16T04:50:52.966Z,18.13
2019-05-16T04:53:22.699Z,18.70
2019-05-16T04:55:52.586Z,19.30
2019-05-16T04:58:23.697Z,19.57
2019-05-16T05:00:53.731Z,18.90
2019-05-16T05:03:23.505Z,17.47
2019-05-16T05:05:53.188Z,18.50
2019-05-16T05:08:22.812Z,19.40
2019-05-16T05:10:52.592Z,17.77
2019-05-16T05:13:22.770Z,16.17
2019-05-16T05:15:52.629Z,17.50
2019-05-16T05:18:22.239Z,16.60
2019-05-16T05:20:52.768Z,16.37
2019-05-16T05:23:22.581Z,16.03
2019-05-16T05:25:52.113Z,17.43
2019-05-16T05:28:21.791Z,16.33
2019-05-16T05:30:51.427Z,16.30
2019-05-16T05:33:21.513Z,18.13
2019-05-16T05:35:51.371Z,19.00
2019-05-16T05:38:21.774Z,19.03
2019-05-16T05:40:51.841Z,20.20
2019-05-16T05:43:21.986Z,20.40
2019-05-16T05:45:51.857Z,21.00
2019-05-16T05:48:22.114Z,19.40
2019-05-16T05:50:52.016Z,19.40
2019-05-16T05:53:21.605Z,17.07
2019-05-16T05:55:51.881Z,19.33
2019-05-16T05:58:21.747Z,17.33
2019-05-16T06:00:52.303Z,17.50
2019-05-16T06:03:23.118Z,18.13
2019-05-16T06:05:53.180Z,16.77
2019-05-16T06:08:22.918Z,17.43
2019-05-16T06:10:52.539Z,17.23
2019-05-16T06:13:22.167Z,17.17
2019-05-16T06:15:52.067Z,17.00
2019-05-16T06:18:21.701Z,16.30
2019-05-16T06:20:51.643Z,15.50
2019-05-16T06:23:21.305Z,15.70
2019-05-16T06:25:51.143Z,16.23
2019-05-16T06:28:21.286Z,15.37
2019-05-16T06:30:51.864Z,16.60
2019-05-16T06:33:21.916Z,15.77
2019-05-16T06:35:51.726Z,16.80
2019-05-16T06:38:21.522Z,15.80
2019-05-16T06:40:52.682Z,15.90
2019-05-16T06:43:22.538Z,14.80
2019-05-16T06:45:52.315Z,16.07
2019-05-16T06:48:22.036Z,14.53
2019-05-16T06:50:52.024Z,15.50
2019-05-16T06:53:21.836Z,16.17
2019-05-16T06:55:51.476Z,15.67
2019-05-16T06:58:22.218Z,16.03
2019-05-16T07:00:52.857Z,14.97
2019-05-16T07:03:22.711Z,13.83
2019-05-16T07:05:52.550Z,14.10
2019-05-16T07:08:22.277Z,13.53
2019-05-16T07:10:51.887Z,13.37
2019-05-16T07:13:21.514Z,13.90
2019-05-16T07:15:51.134Z,14.57
2019-05-16T07:18:21.470Z,13.80
2019-05-16T07:20:51.489Z,12.73
2019-05-16T07:23:21.435Z,14.93
2019-05-16T07:25:51.092Z,12.87
2019-05-16T07:28:21.311Z,13.63
2019-05-16T07:30:51.164Z,14.17
2019-05-16T07:33:21.453Z,13.60
2019-05-16T07:35:51.568Z,13.37
2019-05-16T07:38:21.208Z,13.97
2019-05-16T07:40:51.545Z,13.90
2019-05-16T07:43:21.115Z,14.57
2019-05-16T07:45:51.632Z,14.20
2019-05-16T07:48:22.244Z,12.00
2019-05-16T07:50:52.462Z,12.40
2019-05-16T07:53:22.172Z,12.87
2019-05-16T07:55:52.088Z,13.33
2019-05-16T07:58:22.300Z,13.50
2019-05-16T08:01:02.880Z,12.03
2019-05-16T08:03:23.663Z,11.33
2019-05-16T08:05:53.787Z,11.40
2019-05-16T08:08:24.483Z,10.87
2019-05-16T08:10:54.247Z,11.80
2019-05-16T08:13:23.944Z,11.87
2019-05-16T08:15:53.610Z,11.13
2019-05-16T08:18:23.140Z,9.70
2019-05-16T08:20:52.942Z,10.43
2019-05-16T08:23:22.930Z,10.30
2019-05-16T08:25:52.634Z,10.70
2019-05-16T08:28:22.493Z,11.83
2019-05-16T08:30:53.007Z,10.40
2019-05-16T08:33:22.861Z,10.97
2019-05-16T08:35:52.568Z,11.80
2019-05-16T08:38:22.169Z,11.17
2019-05-16T08:43:23.200Z,9.97
2019-05-16T08:45:52.949Z,11.23
2019-05-16T08:50:05.530Z,11.53
2019-05-16T08:53:25.368Z,10.80
2019-05-16T08:55:54.959Z,10.20
2019-05-16T08:58:24.557Z,10.50
2019-05-16T09:00:55.833Z,10.17
2019-05-16T09:03:25.523Z,11.30
2019-05-16T09:05:55.423Z,10.10
2019-05-16T09:08:25.023Z,9.60
2019-05-16T09:10:35.265Z,9.20
2019-05-16T09:11:01.792Z,9.70
2019-05-16T09:13:32.641Z,9.60
2019-05-16T09:15:57.459Z,10.10
2019-05-16T09:18:28.934Z,9.03
2019-05-16T09:18:30.746Z,9.70
2019-05-16T09:20:58.408Z,10.00
2019-05-16T09:23:28.339Z,9.87
2019-05-16T09:25:58.628Z,9.97
2019-05-16T09:28:28.753Z,9.63
2019-05-16T09:30:58.568Z,9.40
2019-05-16T09:33:28.238Z,10.03
2019-05-16T09:35:57.943Z,9.57
2019-05-16T09:38:28.586Z,9.87
2019-05-16T09:40:58.442Z,10.30
2019-05-16T09:43:28.390Z,11.10
2019-05-16T09:46:07.061Z,9.47
2019-05-16T09:48:29.488Z,10.50
2019-05-16T09:50:59.101Z,9.10
2019-05-16T09:53:28.945Z,8.97
2019-05-16T09:55:58.762Z,8.43
2019-05-16T09:58:28.357Z,10.23
2019-05-16T10:00:58.357Z,10.40
2019-05-16T10:03:28.185Z,10.30
2019-05-16T10:05:58.029Z,10.70
2019-05-16T10:08:27.835Z,9.77
2019-05-16T10:10:57.505Z,9.90
2019-05-16T10:13:27.992Z,9.67
2019-05-16T10:15:57.867Z,9.47
2019-05-16T10:18:27.981Z,9.07
2019-05-16T10:20:59.289Z,10.63
2019-05-16T10:23:28.969Z,8.43
2019-05-16T10:25:58.575Z,9.53
2019-05-16T10:28:28.161Z,10.43
2019-05-16T10:30:57.892Z,9.83
2019-05-16T10:33:27.820Z,9.30
2019-05-16T10:35:58.176Z,8.97
2019-05-16T10:38:28.716Z,10.33
2019-05-16T10:40:58.399Z,8.70
2019-05-16T10:43:28.360Z,10.30
2019-05-16T10:45:58.062Z,10.20
2019-05-16T10:48:27.986Z,9.57
2019-05-16T10:50:57.888Z,9.87
2019-05-16T10:53:57.874Z,11.20
2019-05-16T10:55:58.965Z,10.37
2019-05-16T10:58:36.882Z,11.47
2019-05-16T11:01:27.088Z,10.07
2019-05-16T11:03:31.355Z,10.00
2019-05-16T11:06:06.031Z,10.40
2019-05-16T11:08:32.412Z,10.47
2019-05-16T11:11:02.094Z,10.90
2019-05-16T11:13:31.681Z,10.70
2019-05-16T11:16:01.405Z,11.60
2019-05-16T11:18:31.383Z,11.03
2019-05-16T11:21:01.178Z,12.83
2019-05-16T11:23:31.440Z,12.10
2019-05-16T11:26:01.396Z,12.43
2019-05-16T11:28:31.527Z,12.67
2019-05-16T11:31:03.779Z,12.63
2019-05-16T11:33:32.668Z,12.23
2019-05-16T11:36:02.640Z,11.63
2019-05-16T11:38:32.354Z,11.87
2019-05-16T11:41:01.927Z,11.60
2019-05-16T11:43:31.529Z,11.20
2019-05-16T11:46:01.417Z,11.70
2019-05-16T11:48:31.912Z,10.87
2019-05-16T11:51:01.719Z,12.17
2019-05-16T11:53:31.519Z,11.00
2019-05-16T11:56:02.029Z,10.80
2019-05-16T11:58:31.916Z,12.13
2019-05-16T12:01:01.617Z,11.83
2019-05-16T12:03:31.262Z,12.00
2019-05-16T12:06:00.894Z,12.80
2019-05-16T12:08:30.671Z,13.00
2019-05-16T12:11:00.283Z,13.63
2019-05-16T12:13:32.921Z,13.70
2019-05-16T12:16:01.396Z,11.13
2019-05-16T12:18:31.093Z,11.83
2019-05-16T12:21:00.843Z,11.87
2019-05-16T12:23:30.441Z,12.70
2019-05-16T12:26:00.329Z,12.00
2019-05-16T12:28:29.965Z,11.27
2019-05-16T12:30:59.611Z,11.83
2019-05-16T12:33:29.219Z,11.90
2019-05-16T12:35:59.022Z,14.60
2019-05-16T12:38:28.637Z,14.27
2019-05-16T12:40:58.352Z,12.87
2019-05-16T12:43:44.226Z,13.30
2019-05-16T12:45:59.494Z,12.70
2019-05-16T12:48:29.307Z,11.70
2019-05-16T12:50:59.201Z,12.30
2019-05-16T12:53:31.663Z,10.80
2019-05-16T12:56:00.400Z,12.17
2019-05-16T12:58:37.890Z,12.20
2019-05-16T13:01:01.355Z,14.20
2019-05-16T13:03:31.304Z,13.87
2019-05-16T13:06:00.848Z,14.03
2019-05-16T13:08:30.612Z,13.63
2019-05-16T13:11:00.288Z,12.80
2019-05-16T13:13:30.254Z,12.50
2019-05-16T13:15:59.771Z,13.40
2019-05-16T13:18:29.524Z,13.63
2019-05-16T13:20:59.765Z,13.20
2019-05-16T13:23:29.350Z,14.63
2019-05-16T13:25:58.931Z,14.10
2019-05-16T13:28:28.555Z,14.20
2019-05-16T13:30:58.175Z,13.13
2019-05-16T13:33:27.764Z,13.40
2019-05-16T13:35:57.929Z,13.73
2019-05-16T13:38:28.099Z,14.03
2019-05-16T13:40:57.887Z,15.07
2019-05-16T13:43:27.524Z,14.70
2019-05-16T13:45:57.676Z,15.10
2019-05-16T13:48:27.511Z,14.63
2019-05-16T13:51:10.606Z,15.00
2019-05-16T13:53:28.369Z,14.90
2019-05-16T13:55:57.946Z,16.10
2019-05-16T13:58:28.315Z,14.80
2019-05-16T14:00:58.064Z,15.77
2019-05-16T14:03:27.965Z,17.13
2019-05-16T14:05:58.176Z,16.80
2019-05-16T14:08:28.160Z,16.47
2019-05-16T14:11:01.478Z,17.17
2019-05-16T14:13:29.183Z,16.67
2019-05-16T14:15:58.900Z,15.40
2019-05-16T14:18:28.713Z,16.50
2019-05-16T14:20:58.403Z,16.80
2019-05-16T14:23:28.444Z,15.87
2019-05-16T14:25:58.252Z,15.80
2019-05-16T14:28:27.945Z,16.70
2019-05-16T14:30:57.662Z,17.63
2019-05-16T14:33:27.722Z,17.53
2019-05-16T14:35:57.392Z,15.90
2019-05-16T14:38:27.175Z,17.90
2019-05-16T14:40:57.282Z,16.73
2019-05-16T14:43:27.382Z,16.20
2019-05-16T14:45:57.326Z,17.53
2019-05-16T14:48:27.838Z,16.60
2019-05-16T14:50:57.830Z,15.80
2019-05-16T14:53:28.453Z,16.13
2019-05-16T14:55:58.443Z,15.80
2019-05-16T14:58:30.873Z,16.63
2019-05-16T15:00:59.637Z,16.90
2019-05-16T15:03:29.262Z,15.10
2019-05-16T15:05:59.185Z,16.90
2019-05-16T15:08:29.040Z,16.97
2019-05-16T15:10:58.660Z,16.53
2019-05-16T15:13:28.371Z,16.30
2019-05-16T15:15:58.068Z,16.33
2019-05-16T15:18:28.124Z,15.40
2019-05-16T15:20:57.730Z,15.10
2019-05-16T15:23:28.409Z,15.50
2019-05-16T15:25:58.316Z,15.47
2019-05-16T15:28:30.385Z,16.80
2019-05-16T15:31:00.182Z,16.20
2019-05-16T15:33:29.984Z,15.80
2019-05-16T15:35:59.645Z,15.40
2019-05-16T15:38:29.242Z,17.33
2019-05-16T15:41:00.570Z,17.50
2019-05-16T15:43:30.267Z,16.00
2019-05-16T15:46:01.174Z,17.50
2019-05-16T15:48:31.261Z,17.23
2019-05-16T15:51:01.317Z,16.70
2019-05-16T15:53:31.387Z,16.97
2019-05-16T15:56:01.836Z,17.10
2019-05-16T15:58:31.440Z,17.40
2019-05-16T16:01:01.187Z,18.37
2019-05-16T16:03:30.923Z,16.77
2019-05-16T16:06:00.560Z,17.43
2019-05-16T16:08:30.421Z,17.57
2019-05-16T16:10:59.962Z,17.30
2019-05-16T16:13:29.724Z,15.90
2019-05-16T16:15:59.438Z,17.10
2019-05-16T16:18:29.142Z,17.83
2019-05-16T16:20:58.709Z,16.67
2019-05-16T16:23:28.407Z,17.00
2019-05-16T16:25:59.631Z,17.50
2019-05-16T16:28:29.487Z,16.40
2019-05-16T16:30:58.956Z,17.13
2019-05-16T16:33:30.085Z,17.80
2019-05-16T16:35:59.928Z,18.47
2019-05-16T16:38:29.720Z,17.80
2019-05-16T16:40:59.276Z,16.80
2019-05-16T16:43:28.908Z,18.40
2019-05-16T16:46:08.706Z,19.00
2019-05-16T16:48:32.148Z,18.27
2019-05-16T16:51:01.887Z,18.87
2019-05-16T16:53:31.577Z,18.57
2019-05-16T16:56:01.181Z,17.43
2019-05-16T16:58:30.962Z,17.70
2019-05-16T17:01:01.557Z,19.37
2019-05-16T17:03:31.602Z,19.23
2019-05-16T17:06:01.167Z,17.00
2019-05-16T17:08:30.926Z,17.80
2019-05-16T17:11:00.834Z,18.27
2019-05-16T17:13:30.545Z,19.00
2019-05-16T17:16:00.165Z,18.90
2019-05-16T17:18:29.768Z,20.67
2019-05-16T17:20:59.573Z,16.73
2019-05-16T17:23:29.391Z,18.40
2019-05-16T17:25:58.993Z,19.40
2019-05-16T17:28:28.706Z,18.97
2019-05-16T17:30:58.380Z,19.00
2019-05-16T17:33:28.767Z,18.77
2019-05-16T17:35:58.627Z,19.80
2019-05-16T17:38:28.426Z,18.03
2019-05-16T17:40:58.002Z,19.13
2019-05-16T17:43:27.649Z,18.87
2019-05-16T17:45:57.663Z,16.93
2019-05-16T17:48:29.977Z,18.60
2019-05-16T17:50:58.829Z,19.00
2019-05-16T17:53:28.522Z,18.27
2019-05-16T17:55:58.256Z,19.07
2019-05-16T17:58:27.907Z,18.40
2019-05-16T18:01:00.161Z,17.97
2019-05-16T18:03:29.040Z,19.87
2019-05-16T18:05:58.934Z,18.27
2019-05-16T18:08:28.574Z,19.43
2019-05-16T18:10:58.318Z,18.50
2019-05-16T18:13:27.837Z,17.97
2019-05-16T18:15:57.568Z,20.00
2019-05-16T18:18:27.279Z,18.57
2019-05-16T18:21:01.603Z,18.30
2019-05-16T18:23:28.183Z,18.77
2019-05-16T18:25:57.825Z,18.20
2019-05-16T18:28:27.453Z,18.23
2019-05-16T18:30:57.258Z,18.70
2019-05-16T18:33:27.511Z,17.57
2019-05-16T18:35:58.124Z,17.47
2019-05-16T18:38:28.137Z,18.30
2019-05-16T18:40:57.700Z,17.10
2019-05-16T18:43:27.407Z,17.23
2019-05-16T18:45:57.121Z,18.17
2019-05-16T18:48:27.403Z,15.80
2019-05-16T18:50:57.980Z,16.50
2019-05-16T18:53:27.897Z,17.07
2019-05-16T18:55:57.771Z,18.33
2019-05-16T18:58:27.527Z,16.20
2019-05-16T19:00:57.055Z,18.53
2019-05-16T19:03:27.163Z,17.13
2019-05-16T19:05:57.379Z,18.07
2019-05-16T19:08:27.159Z,18.33
2019-05-16T19:10:59.846Z,17.43
2019-05-16T19:13:28.296Z,18.50
2019-05-16T19:15:58.027Z,16.37
2019-05-16T19:18:27.663Z,17.97
2019-05-16T19:20:57.399Z,17.00
2019-05-16T19:23:27.105Z,16.73
2019-05-16T19:25:57.101Z,17.70
2019-05-16T19:28:28.674Z,18.57
2019-05-16T19:30:58.329Z,17.70
2019-05-16T19:33:28.058Z,17.70
2019-05-16T19:35:57.713Z,16.93
2019-05-16T19:38:29.371Z,18.17
2019-05-16T19:40:59.004Z,18.70
2019-05-16T19:43:28.597Z,17.00
2019-05-16T19:45:58.211Z,19.13
2019-05-16T19:48:27.993Z,19.00
2019-05-16T19:50:57.692Z,18.90
2019-05-16T19:53:27.409Z,19.40
2019-05-16T19:55:57.100Z,19.07
2019-05-16T19:58:27.042Z,19.70
2019-05-16T20:00:57.453Z,20.03
2019-05-16T20:03:27.446Z,19.10
2019-05-16T20:05:57.143Z,21.07
2019-05-16T20:08:27.152Z,19.47
2019-05-16T20:10:56.851Z,19.60
2019-05-16T20:13:27.379Z,17.67
2019-05-16T20:15:57.201Z,18.93
2019-05-16T20:18:27.429Z,18.10
2019-05-16T20:20:57.197Z,19.80
2019-05-16T20:23:27.573Z,18.80
2019-05-16T20:25:57.430Z,19.67
2019-05-16T20:28:27.039Z,19.10
2019-05-16T20:30:59.806Z,19.97
2019-05-16T20:33:28.060Z,18.90
2019-05-16T20:35:57.849Z,19.40
2019-05-16T20:38:27.494Z,18.33
2019-05-16T20:40:59.902Z,19.00
2019-05-16T20:43:28.569Z,20.43
2019-05-16T20:46:00.430Z,19.57
2019-05-16T20:48:30.241Z,20.33
2019-05-16T20:51:00.010Z,20.80
2019-05-16T20:53:29.575Z,22.23
2019-05-16T20:55:59.227Z,20.77
2019-05-16T20:58:28.844Z,20.23
2019-05-16T21:01:01.435Z,21.10
2019-05-16T21:03:29.880Z,19.67
2019-05-16T21:05:59.738Z,20.27
2019-05-16T21:08:29.457Z,21.73
2019-05-16T21:10:59.148Z,20.80
2019-05-16T21:13:28.777Z,21.27
2019-05-16T21:15:58.964Z,21.40
2019-05-16T21:18:28.677Z,21.80
2019-05-16T21:20:59.124Z,19.60
2019-05-16T21:23:28.843Z,21.30
2019-05-16T21:25:58.515Z,22.00
2019-05-16T21:28:28.267Z,21.50
2019-05-16T21:30:57.878Z,19.53
2019-05-16T21:33:27.547Z,22.90
2019-05-16T21:35:58.118Z,22.00
2019-05-16T21:38:27.815Z,20.23
2019-05-16T21:40:58.451Z,21.47
2019-05-16T21:43:28.180Z,21.30
2019-05-16T21:45:57.812Z,20.50
2019-05-16T21:48:27.852Z,21.73
2019-05-16T21:50:57.645Z,22.17
2019-05-16T21:53:29.978Z,19.60
2019-05-16T21:55:58.528Z,23.33
2019-05-16T21:58:29.527Z,22.07
2019-05-16T22:01:00.035Z,20.93
2019-05-16T22:03:29.898Z,21.40
2019-05-16T22:05:59.941Z,22.67
2019-05-16T22:08:31.005Z,22.53
2019-05-16T22:11:00.917Z,21.03
2019-05-16T22:13:30.839Z,22.27
2019-05-16T22:16:00.543Z,22.60
2019-05-16T22:18:30.321Z,23.50
2019-05-16T22:20:59.962Z,22.87
2019-05-16T22:23:29.858Z,23.27
2019-05-16T22:25:59.547Z,22.87
2019-05-16T22:28:30.162Z,23.20
2019-05-16T22:31:00.210Z,23.87
2019-05-16T22:33:29.899Z,24.17
2019-05-16T22:35:59.444Z,22.83
2019-05-16T22:38:29.048Z,23.60
2019-05-16T22:40:58.756Z,24.70
2019-05-16T22:43:28.439Z,25.60
2019-05-16T22:45:57.997Z,26.20
2019-05-16T22:48:27.880Z,25.37
2019-05-16T22:50:57.583Z,24.83
2019-05-16T22:53:27.341Z,23.00
2019-05-16T22:55:57.168Z,25.03
2019-05-16T22:58:27.034Z,26.10
2019-05-16T23:00:57.261Z,26.47
2019-05-16T23:03:27.167Z,26.17
2019-05-16T23:05:56.821Z,24.60
2019-05-16T23:08:27.228Z,25.43
2019-05-16T23:10:56.903Z,26.53
2019-05-16T23:13:26.763Z,27.00
2019-05-16T23:15:57.191Z,26.70
2019-05-16T23:18:26.971Z,24.77
2019-05-16T23:20:57.040Z,26.27
2019-05-16T23:23:26.811Z,25.47
2019-05-16T23:25:56.946Z,25.90
2019-05-16T23:28:27.294Z,26.33
2019-05-16T23:30:57.786Z,26.10
2019-05-16T23:33:28.649Z,26.17
2019-05-16T23:35:58.323Z,27.03
2019-05-16T23:38:27.922Z,24.40
2019-05-16T23:40:57.516Z,26.13
2019-05-16T23:43:27.568Z,27.40
2019-05-16T23:45:57.109Z,26.23
2019-05-16T23:48:26.878Z,26.87
2019-05-16T23:50:57.028Z,26.33
2019-05-16T23:53:26.912Z,25.80
2019-05-16T23:55:56.832Z,26.87
2019-05-16T23:58:26.579Z,26.17
